sensor_id;sensor_type;location;lat;lon;timestamp;temperature;humidity
36556;DHT22;40859;50.560;7.268;2022-11-24T00:00:05;21.30;89.10
36556;DHT22;40859;50.560;7.268;2022-11-24T00:02:32;21.20;89.00
36556;DHT22;40859;50.560;7.268;2022-11-24T00:04:58;21.20;89.00
36556;DHT22;40859;50.560;7.268;2022-11-24T00:07:24;21.30;89.10
36556;DHT22;40859;50.560;7.268;2022-11-24T00:09:50;21.30;89.00
36556;DHT22;40859;50.560;7.268;2022-11-24T00:12:16;21.30;89.00
36556;DHT22;40859;50.560;7.268;2022-11-24T00:14:42;21.30;89.00
36556;DHT22;40859;50.560;7.268;2022-11-24T00:17:09;21.30;89.00
36556;DHT22;40859;50.560;7.268;2022-11-24T00:19:35;21.30;88.90
36556;DHT22;40859;50.560;7.268;2022-11-24T00:22:01;21.30;88.90
36556;DHT22;40859;50.560;7.268;2022-11-24T00:24:27;21.30;88.80
36556;DHT22;40859;50.560;7.268;2022-11-24T00:26:53;21.30;88.80
36556;DHT22;40859;50.560;7.268;2022-11-24T00:29:20;21.30;88.80
36556;DHT22;40859;50.560;7.268;2022-11-24T00:31:45;21.20;88.70
36556;DHT22;40859;50.560;7.268;2022-11-24T00:34:13;21.30;88.70
36556;DHT22;40859;50.560;7.268;2022-11-24T00:36:40;21.20;88.70
36556;DHT22;40859;50.560;7.268;2022-11-24T00:39:13;21.20;88.70
36556;DHT22;40859;50.560;7.268;2022-11-24T00:41:40;21.20;88.70
36556;DHT22;40859;50.560;7.268;2022-11-24T00:44:06;21.20;88.70
36556;DHT22;40859;50.560;7.268;2022-11-24T00:46:33;21.20;88.80
36556;DHT22;40859;50.560;7.268;2022-11-24T00:48:59;21.20;88.70
36556;DHT22;40859;50.560;7.268;2022-11-24T00:51:27;21.20;88.60
36556;DHT22;40859;50.560;7.268;2022-11-24T00:53:56;21.20;88.60
36556;DHT22;40859;50.560;7.268;2022-11-24T00:56:23;21.20;88.60
36556;DHT22;40859;50.560;7.268;2022-11-24T00:58:50;21.20;88.50
36556;DHT22;40859;50.560;7.268;2022-11-24T01:01:27;21.20;88.50
36556;DHT22;40859;50.560;7.268;2022-11-24T01:03:53;21.20;88.50
36556;DHT22;40859;50.560;7.268;2022-11-24T01:06:23;21.20;88.50
36556;DHT22;40859;50.560;7.268;2022-11-24T01:08:49;21.20;88.50
36556;DHT22;40859;50.560;7.268;2022-11-24T01:11:24;21.20;88.50
36556;DHT22;40859;50.560;7.268;2022-11-24T01:13:54;21.20;88.50
36556;DHT22;40859;50.560;7.268;2022-11-24T01:16:30;21.20;88.40
36556;DHT22;40859;50.560;7.268;2022-11-24T01:18:58;21.20;88.50
36556;DHT22;40859;50.560;7.268;2022-11-24T01:21:24;21.20;88.40
36556;DHT22;40859;50.560;7.268;2022-11-24T01:23:51;21.20;88.40
36556;DHT22;40859;50.560;7.268;2022-11-24T01:26:19;21.20;88.40
36556;DHT22;40859;50.560;7.268;2022-11-24T01:28:46;21.20;88.40
36556;DHT22;40859;50.560;7.268;2022-11-24T01:31:13;21.20;88.40
36556;DHT22;40859;50.560;7.268;2022-11-24T01:33:39;21.20;88.40
36556;DHT22;40859;50.560;7.268;2022-11-24T01:36:06;21.20;88.50
36556;DHT22;40859;50.560;7.268;2022-11-24T01:38:32;21.20;88.40
36556;DHT22;40859;50.560;7.268;2022-11-24T01:41:10;21.20;88.40
36556;DHT22;40859;50.560;7.268;2022-11-24T01:43:37;21.10;88.30
36556;DHT22;40859;50.560;7.268;2022-11-24T01:46:54;21.20;88.30
36556;DHT22;40859;50.560;7.268;2022-11-24T01:49:41;21.20;88.40
36556;DHT22;40859;50.560;7.268;2022-11-24T01:52:26;21.20;88.40
36556;DHT22;40859;50.560;7.268;2022-11-24T01:54:59;21.20;88.30
36556;DHT22;40859;50.560;7.268;2022-11-24T01:57:33;21.20;88.20
36556;DHT22;40859;50.560;7.268;2022-11-24T02:00:07;21.20;88.20
36556;DHT22;40859;50.560;7.268;2022-11-24T02:02:33;21.20;88.20
36556;DHT22;40859;50.560;7.268;2022-11-24T02:05:04;21.20;88.10
36556;DHT22;40859;50.560;7.268;2022-11-24T02:07:31;21.20;88.10
36556;DHT22;40859;50.560;7.268;2022-11-24T02:10:05;21.20;88.10
36556;DHT22;40859;50.560;7.268;2022-11-24T02:12:33;21.10;86.10
36556;DHT22;40859;50.560;7.268;2022-11-24T02:15:02;21.10;87.00
36556;DHT22;40859;50.560;7.268;2022-11-24T02:17:28;21.10;87.60
36556;DHT22;40859;50.560;7.268;2022-11-24T02:20:03;21.10;87.80
36556;DHT22;40859;50.560;7.268;2022-11-24T02:27:34;21.10;87.90
36556;DHT22;40859;50.560;7.268;2022-11-24T02:30:00;21.10;88.00
36556;DHT22;40859;50.560;7.268;2022-11-24T02:32:27;21.10;88.10
36556;DHT22;40859;50.560;7.268;2022-11-24T02:35:02;21.10;88.00
36556;DHT22;40859;50.560;7.268;2022-11-24T02:37:28;21.10;88.10
36556;DHT22;40859;50.560;7.268;2022-11-24T02:39:54;21.10;88.00
36556;DHT22;40859;50.560;7.268;2022-11-24T02:42:20;21.10;88.00
36556;DHT22;40859;50.560;7.268;2022-11-24T02:44:49;21.10;88.10
36556;DHT22;40859;50.560;7.268;2022-11-24T02:47:16;21.10;88.10
36556;DHT22;40859;50.560;7.268;2022-11-24T02:49:42;21.10;88.00
36556;DHT22;40859;50.560;7.268;2022-11-24T02:52:08;21.10;88.00
36556;DHT22;40859;50.560;7.268;2022-11-24T02:54:34;21.10;88.00
36556;DHT22;40859;50.560;7.268;2022-11-24T02:57:00;21.10;88.10
36556;DHT22;40859;50.560;7.268;2022-11-24T02:59:26;21.10;88.00
36556;DHT22;40859;50.560;7.268;2022-11-24T03:01:52;21.10;88.80
36556;DHT22;40859;50.560;7.268;2022-11-24T03:04:18;21.10;88.10
36556;DHT22;40859;50.560;7.268;2022-11-24T03:06:44;21.10;88.80
36556;DHT22;40859;50.560;7.268;2022-11-24T03:09:10;21.10;88.00
36556;DHT22;40859;50.560;7.268;2022-11-24T03:11:37;21.10;88.00
36556;DHT22;40859;50.560;7.268;2022-11-24T03:14:03;21.10;88.00
36556;DHT22;40859;50.560;7.268;2022-11-24T03:16:29;21.10;88.00
36556;DHT22;40859;50.560;7.268;2022-11-24T03:18:56;21.10;87.90
36556;DHT22;40859;50.560;7.268;2022-11-24T03:21:22;21.10;88.00
36556;DHT22;40859;50.560;7.268;2022-11-24T03:23:48;21.10;88.00
36556;DHT22;40859;50.560;7.268;2022-11-24T03:26:18;21.10;87.90
36556;DHT22;40859;50.560;7.268;2022-11-24T03:33:41;21.10;87.90
36556;DHT22;40859;50.560;7.268;2022-11-24T03:36:08;21.10;87.90
36556;DHT22;40859;50.560;7.268;2022-11-24T03:38:34;21.10;87.90
36556;DHT22;40859;50.560;7.268;2022-11-24T03:41:00;21.10;88.00
36556;DHT22;40859;50.560;7.268;2022-11-24T03:43:26;21.10;88.00
36556;DHT22;40859;50.560;7.268;2022-11-24T03:45:52;21.10;87.90
36556;DHT22;40859;50.560;7.268;2022-11-24T03:48:18;21.10;87.90
36556;DHT22;40859;50.560;7.268;2022-11-24T03:50:58;21.10;87.90
36556;DHT22;40859;50.560;7.268;2022-11-24T03:53:26;21.10;88.00
36556;DHT22;40859;50.560;7.268;2022-11-24T03:55:53;21.10;88.00
36556;DHT22;40859;50.560;7.268;2022-11-24T03:58:19;21.10;88.00
36556;DHT22;40859;50.560;7.268;2022-11-24T04:00:48;21.10;87.90
36556;DHT22;40859;50.560;7.268;2022-11-24T04:03:14;21.10;87.90
36556;DHT22;40859;50.560;7.268;2022-11-24T04:05:40;21.10;87.90
36556;DHT22;40859;50.560;7.268;2022-11-24T04:08:06;21.10;87.90
36556;DHT22;40859;50.560;7.268;2022-11-24T04:10:35;21.10;87.90
36556;DHT22;40859;50.560;7.268;2022-11-24T04:13:03;21.10;87.90
36556;DHT22;40859;50.560;7.268;2022-11-24T04:15:29;21.10;87.90
36556;DHT22;40859;50.560;7.268;2022-11-24T04:17:55;21.10;87.90
36556;DHT22;40859;50.560;7.268;2022-11-24T04:20:21;21.10;87.90
36556;DHT22;40859;50.560;7.268;2022-11-24T04:22:49;21.10;87.90
36556;DHT22;40859;50.560;7.268;2022-11-24T04:25:16;21.10;87.90
36556;DHT22;40859;50.560;7.268;2022-11-24T04:27:42;21.10;88.00
36556;DHT22;40859;50.560;7.268;2022-11-24T04:30:08;21.10;87.90
36556;DHT22;40859;50.560;7.268;2022-11-24T04:32:35;21.10;88.00
36556;DHT22;40859;50.560;7.268;2022-11-24T04:35:02;21.10;87.90
36556;DHT22;40859;50.560;7.268;2022-11-24T04:37:28;21.10;87.90
36556;DHT22;40859;50.560;7.268;2022-11-24T04:39:53;21.10;88.00
36556;DHT22;40859;50.560;7.268;2022-11-24T04:42:20;21.10;87.90
36556;DHT22;40859;50.560;7.268;2022-11-24T04:44:46;21.10;88.00
36556;DHT22;40859;50.560;7.268;2022-11-24T04:47:19;21.10;88.00
36556;DHT22;40859;50.560;7.268;2022-11-24T04:49:48;21.00;87.90
36556;DHT22;40859;50.560;7.268;2022-11-24T04:52:18;21.10;87.90
36556;DHT22;40859;50.560;7.268;2022-11-24T04:54:45;21.10;88.00
36556;DHT22;40859;50.560;7.268;2022-11-24T04:57:24;21.10;88.00
36556;DHT22;40859;50.560;7.268;2022-11-24T04:59:51;21.10;87.90
36556;DHT22;40859;50.560;7.268;2022-11-24T05:02:17;21.10;88.00
36556;DHT22;40859;50.560;7.268;2022-11-24T05:04:44;21.10;88.00
36556;DHT22;40859;50.560;7.268;2022-11-24T05:07:13;21.00;88.00
36556;DHT22;40859;50.560;7.268;2022-11-24T05:09:40;21.10;88.10
36556;DHT22;40859;50.560;7.268;2022-11-24T05:12:26;21.10;88.00
36556;DHT22;40859;50.560;7.268;2022-11-24T05:14:59;21.10;88.10
36556;DHT22;40859;50.560;7.268;2022-11-24T05:17:30;21.10;88.10
36556;DHT22;40859;50.560;7.268;2022-11-24T05:19:56;21.10;88.10
36556;DHT22;40859;50.560;7.268;2022-11-24T05:22:22;21.00;87.90
36556;DHT22;40859;50.560;7.268;2022-11-24T05:24:48;21.00;88.00
36556;DHT22;40859;50.560;7.268;2022-11-24T05:27:14;21.10;88.00
36556;DHT22;40859;50.560;7.268;2022-11-24T05:29:39;21.00;88.00
36556;DHT22;40859;50.560;7.268;2022-11-24T05:32:05;21.00;88.20
36556;DHT22;40859;50.560;7.268;2022-11-24T05:34:31;21.00;88.20
36556;DHT22;40859;50.560;7.268;2022-11-24T05:36:58;21.10;88.30
36556;DHT22;40859;50.560;7.268;2022-11-24T05:39:31;21.10;88.30
36556;DHT22;40859;50.560;7.268;2022-11-24T05:41:57;21.10;88.40
36556;DHT22;40859;50.560;7.268;2022-11-24T05:44:23;21.10;88.40
36556;DHT22;40859;50.560;7.268;2022-11-24T05:46:49;21.10;88.40
36556;DHT22;40859;50.560;7.268;2022-11-24T05:49:15;21.10;88.40
36556;DHT22;40859;50.560;7.268;2022-11-24T05:51:41;21.10;88.40
36556;DHT22;40859;50.560;7.268;2022-11-24T05:54:07;21.10;88.50
36556;DHT22;40859;50.560;7.268;2022-11-24T05:56:33;21.00;88.40
36556;DHT22;40859;50.560;7.268;2022-11-24T05:58:59;21.10;88.60
36556;DHT22;40859;50.560;7.268;2022-11-24T06:01:25;21.10;88.60
36556;DHT22;40859;50.560;7.268;2022-11-24T06:03:51;21.10;88.60
36556;DHT22;40859;50.560;7.268;2022-11-24T06:06:17;21.10;88.60
36556;DHT22;40859;50.560;7.268;2022-11-24T06:08:42;21.10;88.60
36556;DHT22;40859;50.560;7.268;2022-11-24T06:11:09;21.10;88.70
36556;DHT22;40859;50.560;7.268;2022-11-24T06:13:44;21.10;88.70
36556;DHT22;40859;50.560;7.268;2022-11-24T06:16:11;21.10;88.80
36556;DHT22;40859;50.560;7.268;2022-11-24T06:18:37;21.10;88.80
36556;DHT22;40859;50.560;7.268;2022-11-24T06:21:04;21.10;88.80
36556;DHT22;40859;50.560;7.268;2022-11-24T06:23:30;21.10;88.80
36556;DHT22;40859;50.560;7.268;2022-11-24T06:25:59;21.10;88.90
36556;DHT22;40859;50.560;7.268;2022-11-24T06:28:26;21.10;88.80
36556;DHT22;40859;50.560;7.268;2022-11-24T06:30:52;21.10;88.80
36556;DHT22;40859;50.560;7.268;2022-11-24T06:33:19;21.10;88.90
36556;DHT22;40859;50.560;7.268;2022-11-24T06:35:45;21.10;88.80
36556;DHT22;40859;50.560;7.268;2022-11-24T06:38:10;21.10;88.90
36556;DHT22;40859;50.560;7.268;2022-11-24T06:40:36;21.10;88.90
36556;DHT22;40859;50.560;7.268;2022-11-24T06:43:02;21.10;88.90
36556;DHT22;40859;50.560;7.268;2022-11-24T06:45:28;21.10;88.90
36556;DHT22;40859;50.560;7.268;2022-11-24T06:47:54;21.10;88.90
36556;DHT22;40859;50.560;7.268;2022-11-24T06:50:21;21.10;88.90
36556;DHT22;40859;50.560;7.268;2022-11-24T06:52:47;21.10;89.00
36556;DHT22;40859;50.560;7.268;2022-11-24T06:55:13;21.10;89.00
36556;DHT22;40859;50.560;7.268;2022-11-24T06:57:39;21.10;89.00
36556;DHT22;40859;50.560;7.268;2022-11-24T07:00:05;21.10;89.00
36556;DHT22;40859;50.560;7.268;2022-11-24T07:02:32;21.10;89.00
36556;DHT22;40859;50.560;7.268;2022-11-24T07:04:58;21.10;89.00
36556;DHT22;40859;50.560;7.268;2022-11-24T07:07:24;21.10;89.00
36556;DHT22;40859;50.560;7.268;2022-11-24T07:09:50;21.10;89.00
36556;DHT22;40859;50.560;7.268;2022-11-24T07:12:16;21.10;89.00
36556;DHT22;40859;50.560;7.268;2022-11-24T07:14:42;21.10;89.10
36556;DHT22;40859;50.560;7.268;2022-11-24T07:17:08;21.10;89.10
36556;DHT22;40859;50.560;7.268;2022-11-24T07:19:34;21.10;89.10
36556;DHT22;40859;50.560;7.268;2022-11-24T07:22:00;21.10;89.00
36556;DHT22;40859;50.560;7.268;2022-11-24T07:24:25;21.10;89.10
36556;DHT22;40859;50.560;7.268;2022-11-24T07:26:51;21.10;89.00
36556;DHT22;40859;50.560;7.268;2022-11-24T07:29:17;21.10;89.10
36556;DHT22;40859;50.560;7.268;2022-11-24T07:31:43;21.10;89.10
36556;DHT22;40859;50.560;7.268;2022-11-24T07:34:10;21.10;89.10
36556;DHT22;40859;50.560;7.268;2022-11-24T07:36:56;21.10;89.10
36556;DHT22;40859;50.560;7.268;2022-11-24T07:39:21;21.10;89.10
36556;DHT22;40859;50.560;7.268;2022-11-24T07:41:47;21.10;89.10
36556;DHT22;40859;50.560;7.268;2022-11-24T07:44:13;21.10;89.20
36556;DHT22;40859;50.560;7.268;2022-11-24T07:46:40;21.10;89.20
36556;DHT22;40859;50.560;7.268;2022-11-24T07:49:05;21.10;89.20
36556;DHT22;40859;50.560;7.268;2022-11-24T07:51:32;21.10;89.20
36556;DHT22;40859;50.560;7.268;2022-11-24T07:53:58;21.10;89.20
36556;DHT22;40859;50.560;7.268;2022-11-24T07:56:24;21.10;89.20
36556;DHT22;40859;50.560;7.268;2022-11-24T07:58:50;21.10;89.20
36556;DHT22;40859;50.560;7.268;2022-11-24T08:01:17;21.10;89.30
36556;DHT22;40859;50.560;7.268;2022-11-24T08:03:44;21.10;89.30
36556;DHT22;40859;50.560;7.268;2022-11-24T08:06:13;21.10;89.30
36556;DHT22;40859;50.560;7.268;2022-11-24T08:08:39;21.10;89.30
36556;DHT22;40859;50.560;7.268;2022-11-24T08:11:07;21.10;89.30
36556;DHT22;40859;50.560;7.268;2022-11-24T08:13:37;21.10;89.30
36556;DHT22;40859;50.560;7.268;2022-11-24T08:16:07;21.10;89.30
36556;DHT22;40859;50.560;7.268;2022-11-24T08:18:34;21.10;89.30
36556;DHT22;40859;50.560;7.268;2022-11-24T08:21:01;21.10;89.30
36556;DHT22;40859;50.560;7.268;2022-11-24T08:23:27;21.10;89.30
36556;DHT22;40859;50.560;7.268;2022-11-24T08:25:53;21.10;89.30
36556;DHT22;40859;50.560;7.268;2022-11-24T08:28:21;21.10;89.30
36556;DHT22;40859;50.560;7.268;2022-11-24T08:30:47;21.10;89.30
36556;DHT22;40859;50.560;7.268;2022-11-24T08:33:13;21.10;89.40
36556;DHT22;40859;50.560;7.268;2022-11-24T08:35:39;21.10;89.40
36556;DHT22;40859;50.560;7.268;2022-11-24T08:38:05;21.10;89.40
36556;DHT22;40859;50.560;7.268;2022-11-24T08:40:31;21.10;89.40
36556;DHT22;40859;50.560;7.268;2022-11-24T08:42:58;21.10;89.40
36556;DHT22;40859;50.560;7.268;2022-11-24T08:45:24;21.10;89.40
36556;DHT22;40859;50.560;7.268;2022-11-24T08:47:52;21.10;89.40
36556;DHT22;40859;50.560;7.268;2022-11-24T08:50:19;21.10;89.40
36556;DHT22;40859;50.560;7.268;2022-11-24T08:52:45;21.10;89.30
36556;DHT22;40859;50.560;7.268;2022-11-24T08:55:11;21.10;89.40
36556;DHT22;40859;50.560;7.268;2022-11-24T08:57:36;21.10;89.40
36556;DHT22;40859;50.560;7.268;2022-11-24T09:00:04;21.10;89.40
36556;DHT22;40859;50.560;7.268;2022-11-24T09:02:30;21.10;89.40
36556;DHT22;40859;50.560;7.268;2022-11-24T09:04:55;21.10;89.40
36556;DHT22;40859;50.560;7.268;2022-11-24T09:07:22;21.10;89.50
36556;DHT22;40859;50.560;7.268;2022-11-24T09:09:48;21.10;89.50
36556;DHT22;40859;50.560;7.268;2022-11-24T09:12:14;21.10;89.50
36556;DHT22;40859;50.560;7.268;2022-11-24T09:14:40;21.10;89.50
36556;DHT22;40859;50.560;7.268;2022-11-24T09:17:06;21.10;89.50
36556;DHT22;40859;50.560;7.268;2022-11-24T09:19:32;21.10;89.60
36556;DHT22;40859;50.560;7.268;2022-11-24T09:21:57;21.10;89.60
36556;DHT22;40859;50.560;7.268;2022-11-24T09:24:23;21.10;89.50
36556;DHT22;40859;50.560;7.268;2022-11-24T09:26:49;21.10;89.50
36556;DHT22;40859;50.560;7.268;2022-11-24T09:29:15;21.10;89.60
36556;DHT22;40859;50.560;7.268;2022-11-24T09:31:42;21.10;89.60
36556;DHT22;40859;50.560;7.268;2022-11-24T09:34:12;21.10;89.60
36556;DHT22;40859;50.560;7.268;2022-11-24T09:36:38;21.10;89.70
36556;DHT22;40859;50.560;7.268;2022-11-24T09:39:04;21.10;89.70
36556;DHT22;40859;50.560;7.268;2022-11-24T09:56:13;21.10;89.70
36556;DHT22;40859;50.560;7.268;2022-11-24T09:58:50;21.10;89.80
36556;DHT22;40859;50.560;7.268;2022-11-24T10:01:21;21.10;89.80
36556;DHT22;40859;50.560;7.268;2022-11-24T10:03:50;21.10;89.90
36556;DHT22;40859;50.560;7.268;2022-11-24T10:06:37;21.10;90.00
36556;DHT22;40859;50.560;7.268;2022-11-24T10:09:18;21.10;89.90
36556;DHT22;40859;50.560;7.268;2022-11-24T10:15:27;21.10;90.00
36556;DHT22;40859;50.560;7.268;2022-11-24T10:18:32;21.10;90.00
36556;DHT22;40859;50.560;7.268;2022-11-24T10:28:01;21.10;90.00
36556;DHT22;40859;50.560;7.268;2022-11-24T10:30:28;21.10;90.10
36556;DHT22;40859;50.560;7.268;2022-11-24T10:33:05;21.10;90.10
36556;DHT22;40859;50.560;7.268;2022-11-24T10:35:46;21.10;90.10
36556;DHT22;40859;50.560;7.268;2022-11-24T10:38:32;21.10;90.10
36556;DHT22;40859;50.560;7.268;2022-11-24T10:41:07;21.20;90.10
36556;DHT22;40859;50.560;7.268;2022-11-24T10:43:39;21.20;90.20
36556;DHT22;40859;50.560;7.268;2022-11-24T10:46:21;21.20;90.20
36556;DHT22;40859;50.560;7.268;2022-11-24T10:49:02;21.20;90.20
36556;DHT22;40859;50.560;7.268;2022-11-24T10:52:30;21.20;90.20
36556;DHT22;40859;50.560;7.268;2022-11-24T10:55:12;21.20;90.20
36556;DHT22;40859;50.560;7.268;2022-11-24T10:57:39;21.20;90.20
36556;DHT22;40859;50.560;7.268;2022-11-24T11:00:50;21.20;90.20
36556;DHT22;40859;50.560;7.268;2022-11-24T11:03:21;21.20;90.20
36556;DHT22;40859;50.560;7.268;2022-11-24T11:05:56;21.20;90.20
36556;DHT22;40859;50.560;7.268;2022-11-24T11:08:26;21.20;90.20
36556;DHT22;40859;50.560;7.268;2022-11-24T11:11:27;21.20;90.20
36556;DHT22;40859;50.560;7.268;2022-11-24T11:13:58;21.20;90.20
36556;DHT22;40859;50.560;7.268;2022-11-24T11:19:43;21.30;90.20
36556;DHT22;40859;50.560;7.268;2022-11-24T11:22:30;21.30;90.20
36556;DHT22;40859;50.560;7.268;2022-11-24T11:25:28;21.30;90.30
36556;DHT22;40859;50.560;7.268;2022-11-24T11:31:03;21.30;90.30
36556;DHT22;40859;50.560;7.268;2022-11-24T11:33:31;21.30;90.30
36556;DHT22;40859;50.560;7.268;2022-11-24T11:35:58;21.30;90.30
36556;DHT22;40859;50.560;7.268;2022-11-24T11:38:32;21.30;90.40
36556;DHT22;40859;50.560;7.268;2022-11-24T11:41:00;21.20;90.30
36556;DHT22;40859;50.560;7.268;2022-11-24T11:43:38;21.30;90.40
36556;DHT22;40859;50.560;7.268;2022-11-24T11:46:11;21.30;90.40
36556;DHT22;40859;50.560;7.268;2022-11-24T11:48:39;21.30;90.40
36556;DHT22;40859;50.560;7.268;2022-11-24T11:57:40;21.30;90.40
36556;DHT22;40859;50.560;7.268;2022-11-24T12:00:19;21.30;90.40
36556;DHT22;40859;50.560;7.268;2022-11-24T12:09:38;21.30;90.40
36556;DHT22;40859;50.560;7.268;2022-11-24T12:15:46;21.30;90.40
36556;DHT22;40859;50.560;7.268;2022-11-24T12:27:00;21.30;90.30
36556;DHT22;40859;50.560;7.268;2022-11-24T12:38:10;21.40;90.30
36556;DHT22;40859;50.560;7.268;2022-11-24T12:53:36;21.30;90.20
36556;DHT22;40859;50.560;7.268;2022-11-24T12:56:11;21.40;90.20
36556;DHT22;40859;50.560;7.268;2022-11-24T13:00:31;21.40;90.20
36556;DHT22;40859;50.560;7.268;2022-11-24T13:06:28;21.40;90.20
36556;DHT22;40859;50.560;7.268;2022-11-24T13:09:15;21.40;90.30
36556;DHT22;40859;50.560;7.268;2022-11-24T13:11:47;21.40;90.30
36556;DHT22;40859;50.560;7.268;2022-11-24T13:14:35;21.40;90.30
36556;DHT22;40859;50.560;7.268;2022-11-24T13:17:03;21.40;90.30
36556;DHT22;40859;50.560;7.268;2022-11-24T13:19:48;21.40;90.30
36556;DHT22;40859;50.560;7.268;2022-11-24T13:22:25;21.40;90.30
36556;DHT22;40859;50.560;7.268;2022-11-24T13:25:36;21.40;90.30
36556;DHT22;40859;50.560;7.268;2022-11-24T13:28:03;21.40;90.30
36556;DHT22;40859;50.560;7.268;2022-11-24T13:31:20;21.40;90.20
36556;DHT22;40859;50.560;7.268;2022-11-24T13:33:46;21.40;90.20
36556;DHT22;40859;50.560;7.268;2022-11-24T13:36:29;21.40;90.20
36556;DHT22;40859;50.560;7.268;2022-11-24T13:38:56;21.40;90.20
36556;DHT22;40859;50.560;7.268;2022-11-24T13:59:44;21.40;90.20
36556;DHT22;40859;50.560;7.268;2022-11-24T14:02:20;21.40;90.20
36556;DHT22;40859;50.560;7.268;2022-11-24T14:04:48;21.40;90.20
36556;DHT22;40859;50.560;7.268;2022-11-24T14:07:14;21.40;90.20
36556;DHT22;40859;50.560;7.268;2022-11-24T14:09:43;21.40;90.20
36556;DHT22;40859;50.560;7.268;2022-11-24T14:12:24;21.40;90.20
36556;DHT22;40859;50.560;7.268;2022-11-24T14:14:52;21.40;90.10
36556;DHT22;40859;50.560;7.268;2022-11-24T14:17:26;21.40;90.10
36556;DHT22;40859;50.560;7.268;2022-11-24T14:19:56;21.40;90.10
36556;DHT22;40859;50.560;7.268;2022-11-24T14:22:39;21.40;90.10
36556;DHT22;40859;50.560;7.268;2022-11-24T14:25:30;21.40;90.10
36556;DHT22;40859;50.560;7.268;2022-11-24T14:27:58;21.40;90.10
36556;DHT22;40859;50.560;7.268;2022-11-24T14:30:25;21.40;90.10
36556;DHT22;40859;50.560;7.268;2022-11-24T14:32:59;21.40;90.10
36556;DHT22;40859;50.560;7.268;2022-11-24T14:35:34;21.40;90.00
36556;DHT22;40859;50.560;7.268;2022-11-24T14:38:12;21.40;90.00
36556;DHT22;40859;50.560;7.268;2022-11-24T14:42:03;21.40;90.00
36556;DHT22;40859;50.560;7.268;2022-11-24T14:44:59;21.40;90.00
36556;DHT22;40859;50.560;7.268;2022-11-24T14:47:35;21.50;90.00
36556;DHT22;40859;50.560;7.268;2022-11-24T14:50:13;21.40;90.00
36556;DHT22;40859;50.560;7.268;2022-11-24T14:52:51;21.50;90.10
36556;DHT22;40859;50.560;7.268;2022-11-24T14:55:27;21.40;90.10
36556;DHT22;40859;50.560;7.268;2022-11-24T14:57:54;21.40;90.10
36556;DHT22;40859;50.560;7.268;2022-11-24T15:00:29;21.50;90.10
36556;DHT22;40859;50.560;7.268;2022-11-24T15:03:17;21.50;90.10
36556;DHT22;40859;50.560;7.268;2022-11-24T15:05:54;21.50;90.20
36556;DHT22;40859;50.560;7.268;2022-11-24T15:08:23;21.50;90.20
36556;DHT22;40859;50.560;7.268;2022-11-24T15:10:56;21.40;90.10
36556;DHT22;40859;50.560;7.268;2022-11-24T15:13:23;21.50;90.20
36556;DHT22;40859;50.560;7.268;2022-11-24T15:15:56;21.40;90.10
36556;DHT22;40859;50.560;7.268;2022-11-24T15:18:42;21.50;90.20
36556;DHT22;40859;50.560;7.268;2022-11-24T15:21:32;21.50;90.20
36556;DHT22;40859;50.560;7.268;2022-11-24T15:24:31;21.50;90.10
36556;DHT22;40859;50.560;7.268;2022-11-24T15:26:58;21.50;90.10
36556;DHT22;40859;50.560;7.268;2022-11-24T15:29:25;21.50;90.10
36556;DHT22;40859;50.560;7.268;2022-11-24T15:31:52;21.50;90.00
36556;DHT22;40859;50.560;7.268;2022-11-24T15:34:18;21.50;90.00
36556;DHT22;40859;50.560;7.268;2022-11-24T15:36:44;21.50;90.00
36556;DHT22;40859;50.560;7.268;2022-11-24T15:39:09;21.50;90.00
36556;DHT22;40859;50.560;7.268;2022-11-24T15:41:35;21.50;90.00
36556;DHT22;40859;50.560;7.268;2022-11-24T15:44:01;21.50;90.00
36556;DHT22;40859;50.560;7.268;2022-11-24T15:46:29;21.50;89.90
36556;DHT22;40859;50.560;7.268;2022-11-24T15:49:03;21.50;89.80
36556;DHT22;40859;50.560;7.268;2022-11-24T15:51:29;21.50;89.80
36556;DHT22;40859;50.560;7.268;2022-11-24T15:53:56;21.50;89.80
36556;DHT22;40859;50.560;7.268;2022-11-24T15:56:39;21.50;89.80
36556;DHT22;40859;50.560;7.268;2022-11-24T15:59:16;21.50;89.60
36556;DHT22;40859;50.560;7.268;2022-11-24T16:01:42;21.50;89.70
36556;DHT22;40859;50.560;7.268;2022-11-24T16:04:08;21.40;89.60
36556;DHT22;40859;50.560;7.268;2022-11-24T16:06:37;21.50;89.70
36556;DHT22;40859;50.560;7.268;2022-11-24T16:09:03;21.50;89.60
36556;DHT22;40859;50.560;7.268;2022-11-24T16:11:29;21.50;89.50
36556;DHT22;40859;50.560;7.268;2022-11-24T16:13:55;21.50;89.50
36556;DHT22;40859;50.560;7.268;2022-11-24T16:16:22;21.50;89.50
36556;DHT22;40859;50.560;7.268;2022-11-24T16:18:49;21.50;89.50
36556;DHT22;40859;50.560;7.268;2022-11-24T16:21:15;21.50;89.40
36556;DHT22;40859;50.560;7.268;2022-11-24T16:23:41;21.50;89.40
36556;DHT22;40859;50.560;7.268;2022-11-24T16:26:07;21.50;89.40
36556;DHT22;40859;50.560;7.268;2022-11-24T16:28:33;21.50;89.40
36556;DHT22;40859;50.560;7.268;2022-11-24T16:30:59;21.50;89.40
36556;DHT22;40859;50.560;7.268;2022-11-24T16:33:28;21.50;89.40
36556;DHT22;40859;50.560;7.268;2022-11-24T16:35:55;21.50;89.30
36556;DHT22;40859;50.560;7.268;2022-11-24T16:38:21;21.50;89.30
36556;DHT22;40859;50.560;7.268;2022-11-24T16:40:54;21.50;89.30
36556;DHT22;40859;50.560;7.268;2022-11-24T16:43:29;21.50;89.30
36556;DHT22;40859;50.560;7.268;2022-11-24T16:46:56;21.50;89.20
36556;DHT22;40859;50.560;7.268;2022-11-24T16:49:22;21.50;89.10
36556;DHT22;40859;50.560;7.268;2022-11-24T16:51:47;21.50;89.10
36556;DHT22;40859;50.560;7.268;2022-11-24T16:54:14;21.50;89.10
36556;DHT22;40859;50.560;7.268;2022-11-24T16:56:40;21.50;89.10
36556;DHT22;40859;50.560;7.268;2022-11-24T16:59:06;21.50;89.10
36556;DHT22;40859;50.560;7.268;2022-11-24T17:01:32;21.50;89.00
36556;DHT22;40859;50.560;7.268;2022-11-24T17:03:58;21.50;89.00
36556;DHT22;40859;50.560;7.268;2022-11-24T17:06:24;21.50;88.90
36556;DHT22;40859;50.560;7.268;2022-11-24T17:08:51;21.50;88.90
36556;DHT22;40859;50.560;7.268;2022-11-24T17:11:21;21.50;88.90
36556;DHT22;40859;50.560;7.268;2022-11-24T17:13:48;21.50;88.80
36556;DHT22;40859;50.560;7.268;2022-11-24T17:16:16;21.50;88.80
36556;DHT22;40859;50.560;7.268;2022-11-24T17:18:42;21.50;88.80
36556;DHT22;40859;50.560;7.268;2022-11-24T17:21:19;21.50;88.70
36556;DHT22;40859;50.560;7.268;2022-11-24T17:23:45;21.50;88.70
36556;DHT22;40859;50.560;7.268;2022-11-24T17:26:15;21.50;88.70
36556;DHT22;40859;50.560;7.268;2022-11-24T17:28:42;21.50;88.60
36556;DHT22;40859;50.560;7.268;2022-11-24T17:34:36;21.50;88.50
36556;DHT22;40859;50.560;7.268;2022-11-24T17:37:01;21.50;88.40
36556;DHT22;40859;50.560;7.268;2022-11-24T17:39:27;21.40;88.30
36556;DHT22;40859;50.560;7.268;2022-11-24T17:41:53;21.50;88.30
36556;DHT22;40859;50.560;7.268;2022-11-24T17:44:19;21.50;88.30